Jonathan, Mississippi
Current Conditions -  °F | °C
As of 1:06 AM on Saturday 20 Dec 2014 (Local Time) from KMOB Reporting Station
Overcast Overcast  
Wind Chill: 41°   Ceiling: 2000
Heat Index: 46°   Visibility: 10mi
Dew Point: 45°   Wind: 12mph
Humidity: 96%   Direction: 50°NE
Pressure: 30.08"   Gusts: NA
Location:  31.1153°N, 88.5168°W
Report Text: KMOB 200706Z AUTO 05010KT 10SM FEW005 OVC020 08/07 A3008 RMK AO2 RAE06 P0000 T00780072 $
Loading
Personal Weather Stations






























Interactive Weather Map New forecast layout! Learn more

10-Day Weather Forecast

Advertisements
Track Severe Weather on mobile